Time;durP1;ratioP1;P1;durP2;ratioP2;P2;SDS_P1;SDS_P2;PMS_P1;PMS_P2;Temp;Humidity;BMP_temperature;BMP_pressure;BME280_temperature;BME280_humidity;BME280_pressure;Samples;Min_cycle;Max_cycle;Signal;HPM_P1;HPM_P2
2022/10/17 00:01:07;;;;;;;33.05;14.45;;;11.00;99.90;;;;;;4892891;29;20143;-82
2022/10/17 00:03:35;;;;;;;27.98;11.82;;;11.00;99.90;;;;;;4894126;29;20044;-81
2022/10/17 00:06:10;;;;;;;21.85;8.63;;;10.90;99.90;;;;;;4892142;29;20088;-81
2022/10/17 00:08:37;;;;;;;20.35;5.93;;;11.00;99.90;;;;;;4893701;29;20139;-81
2022/10/17 00:11:06;;;;;;;15.88;6.68;;;11.00;99.90;;;;;;4893298;29;20404;-81
2022/10/17 00:13:32;;;;;;;19.92;5.55;;;11.00;99.90;;;;;;4898026;29;20404;-82
2022/10/17 00:15:58;;;;;;;20.98;5.15;;;11.00;99.90;;;;;;4896800;29;20408;-81
2022/10/17 00:18:24;;;;;;;15.35;4.13;;;11.00;99.90;;;;;;4896990;29;20069;-82
2022/10/17 00:20:50;;;;;;;14.45;4.00;;;11.00;99.90;;;;;;4895618;29;20488;-81
2022/10/17 00:23:16;;;;;;;16.65;4.10;;;10.90;99.90;;;;;;4897136;29;20142;-82
2022/10/17 00:25:41;;;;;;;20.42;4.45;;;11.30;99.90;;;;;;4896582;29;20044;-81
2022/10/17 00:28:09;;;;;;;15.38;4.28;;;11.10;99.90;;;;;;4896751;29;20067;-81
2022/10/17 00:30:35;;;;;;;17.60;4.57;;;11.00;99.90;;;;;;4897099;29;20074;-81
2022/10/17 00:33:01;;;;;;;14.88;3.60;;;11.00;99.90;;;;;;4895965;29;20048;-81
2022/10/17 00:35:27;;;;;;;19.05;4.10;;;11.00;99.90;;;;;;4896428;29;20048;-81
2022/10/17 00:37:52;;;;;;;17.92;4.15;;;11.10;99.90;;;;;;4896675;29;20048;-81
2022/10/17 00:40:18;;;;;;;19.00;4.00;;;11.10;99.90;;;;;;4895697;29;20056;-81
2022/10/17 00:42:44;;;;;;;17.63;4.20;;;11.10;99.90;;;;;;4896762;29;20067;-81
2022/10/17 00:45:19;;;;;;;19.35;3.80;;;11.10;99.90;;;;;;4896255;29;20048;-81
2022/10/17 00:47:49;;;;;;;14.68;3.97;;;11.10;99.90;;;;;;4895629;29;20127;-81
2022/10/17 00:50:16;;;;;;;17.75;4.05;;;11.00;99.90;;;;;;4896160;29;20191;-82
2022/10/17 00:52:43;;;;;;;17.20;3.75;;;11.10;99.90;;;;;;4896754;29;20127;-81
2022/10/17 00:55:15;;;;;;;15.90;3.85;;;11.00;99.90;;;;;;4895388;29;20059;-81
2022/10/17 00:57:43;;;;;;;12.43;3.88;;;11.10;99.90;;;;;;4896492;29;20048;-81
2022/10/17 01:00:10;;;;;;;10.13;3.47;;;11.20;99.90;;;;;;4895531;29;20056;-81
2022/10/17 01:02:36;;;;;;;17.00;3.92;;;11.10;99.90;;;;;;4896929;29;20059;-81
2022/10/17 01:05:02;;;;;;;14.70;4.13;;;11.10;99.90;;;;;;4895313;29;20048;-81
2022/10/17 01:07:28;;;;;;;14.85;3.65;;;11.20;99.90;;;;;;4895737;29;20059;-81
2022/10/17 01:09:55;;;;;;;11.48;3.90;;;11.20;99.90;;;;;;4895812;29;20131;-81
2022/10/17 01:12:27;;;;;;;20.92;4.10;;;11.30;99.90;;;;;;4896360;29;20489;-81
2022/10/17 01:15:05;;;;;;;17.97;4.30;;;11.40;99.90;;;;;;4894760;29;20052;-82
2022/10/17 01:17:53;;;;;;;15.07;3.83;;;11.40;99.90;;;;;;4880630;29;20047;-81
2022/10/17 01:20:55;;;;;;;17.13;4.90;;;11.40;99.90;;;;;;4879339;29;20087;-81
2022/10/17 01:23:30;;;;;;;14.88;4.70;;;11.50;99.90;;;;;;4894789;29;20044;-81
2022/10/17 01:26:18;;;;;;;17.40;4.80;;;11.40;99.90;;;;;;4880364;29;20516;-81
2022/10/17 01:28:44;;;;;;;17.48;4.20;;;11.60;99.90;;;;;;4895325;29;20084;-81
2022/10/17 01:31:13;;;;;;;18.35;4.90;;;11.50;99.90;;;;;;4879941;29;20048;-81
2022/10/17 01:33:44;;;;;;;8.85;3.90;;;11.60;99.90;;;;;;4895826;29;20116;-81
2022/10/17 01:36:17;;;;;;;15.23;5.13;;;11.50;99.90;;;;;;4892537;29;20568;-81
2022/10/17 01:38:49;;;;;;;18.33;6.07;;;11.60;99.90;;;;;;4879596;29;20060;-81
2022/10/17 01:41:35;;;;;;;19.40;4.72;;;11.70;99.90;;;;;;4880140;29;20055;-81
2022/10/17 01:44:09;;;;;;;15.63;5.30;;;11.80;99.90;;;;;;4879721;29;20114;-81
2022/10/17 01:46:37;;;;;;;14.07;5.22;;;11.80;99.90;;;;;;4895820;29;20055;-81
2022/10/17 01:49:05;;;;;;;12.55;5.00;;;11.90;99.90;;;;;;4879988;29;20126;-81
2022/10/17 01:51:37;;;;;;;19.02;5.93;;;12.00;99.90;;;;;;4879272;29;20076;-81
2022/10/17 01:54:17;;;;;;;18.67;5.75;;;12.00;99.90;;;;;;4895256;29;20761;-81
2022/10/17 01:56:45;;;;;;;17.95;5.75;;;12.00;99.90;;;;;;4878721;29;20083;-81
2022/10/17 01:59:16;;;;;;;17.75;5.82;;;12.00;99.90;;;;;;4895781;29;20568;-81
2022/10/17 02:01:44;;;;;;;13.15;5.38;;;12.10;99.90;;;;;;4879280;29;20134;-82
2022/10/17 02:04:10;;;;;;;17.52;5.70;;;12.20;99.90;;;;;;4894865;29;20040;-82
2022/10/17 02:06:37;;;;;;;16.02;6.38;;;12.20;99.90;;;;;;4879159;29;20048;-81
2022/10/17 02:09:24;;;;;;;12.20;6.03;;;12.20;99.90;;;;;;4879591;29;20100;-81
2022/10/17 02:12:07;;;;;;;14.13;6.45;;;12.10;99.90;;;;;;4894287;29;20151;-81
2022/10/17 02:14:40;;;;;;;16.80;6.70;;;12.20;99.90;;;;;;4895564;29;20500;-82
2022/10/17 02:17:29;;;;;;;15.35;6.72;;;12.10;99.90;;;;;;4895034;29;20055;-81
2022/10/17 02:20:08;;;;;;;16.55;7.72;;;12.20;99.90;;;;;;4894287;29;20083;-81
2022/10/17 02:22:42;;;;;;;19.15;7.30;;;12.10;99.90;;;;;;4895443;29;20075;-81
2022/10/17 02:25:20;;;;;;;17.92;8.18;;;12.20;99.90;;;;;;4893605;29;20492;-82
2022/10/17 02:27:49;;;;;;;19.52;8.35;;;12.10;99.90;;;;;;4894489;29;20052;-81
2022/10/17 02:30:28;;;;;;;18.98;8.50;;;12.10;99.90;;;;;;4879188;29;20694;-81
2022/10/17 02:33:09;;;;;;;14.57;8.45;;;12.10;99.90;;;;;;4894077;29;20048;-81
2022/10/17 02:35:38;;;;;;;15.23;8.18;;;12.00;99.90;;;;;;4894276;29;20100;-81
2022/10/17 02:38:06;;;;;;;21.40;7.78;;;12.00;99.90;;;;;;4894794;29;20468;-81
2022/10/17 02:40:33;;;;;;;17.23;8.23;;;12.30;99.90;;;;;;4892718;29;20055;-81
2022/10/17 02:42:59;;;;;;;16.75;7.95;;;12.00;99.90;;;;;;4893870;29;20462;-81
2022/10/17 02:45:28;;;;;;;14.95;8.32;;;12.10;99.90;;;;;;4892823;29;20618;-81
2022/10/17 02:48:02;;;;;;;15.10;8.00;;;12.00;99.90;;;;;;4893676;29;20052;-81
2022/10/17 02:50:41;;;;;;;18.38;7.95;;;11.90;99.90;;;;;;4892966;29;20119;-81
2022/10/17 02:53:14;;;;;;;16.23;8.00;;;12.10;99.90;;;;;;4877425;29;20104;-81
2022/10/17 02:55:48;;;;;;;18.23;8.40;;;12.00;99.90;;;;;;4892935;29;20095;-81
2022/10/17 02:58:22;;;;;;;17.35;8.48;;;12.00;99.90;;;;;;4893904;29;20493;-81
2022/10/17 03:00:49;;;;;;;17.65;8.38;;;12.00;99.90;;;;;;4876746;29;20118;-81
2022/10/17 03:03:20;;;;;;;18.50;8.60;;;12.00;99.90;;;;;;4893658;29;20155;-82
2022/10/17 03:05:46;;;;;;;16.02;8.88;;;12.00;99.90;;;;;;4892791;29;20040;-82
2022/10/17 03:08:11;;;;;;;20.80;8.77;;;11.90;99.90;;;;;;4892965;29;20048;-81
2022/10/17 03:10:37;;;;;;;15.57;9.18;;;11.90;99.90;;;;;;4893116;29;20044;-81
2022/10/17 03:13:03;;;;;;;20.73;9.82;;;11.80;99.90;;;;;;4893487;29;20067;-81
2022/10/17 03:15:28;;;;;;;20.25;9.90;;;11.80;99.90;;;;;;4892415;29;20060;-82
2022/10/17 03:17:54;;;;;;;24.88;10.32;;;11.90;99.90;;;;;;4893525;29;20374;-81
2022/10/17 03:20:20;;;;;;;19.83;10.75;;;11.90;99.90;;;;;;4892515;29;20551;-81
2022/10/17 03:22:46;;;;;;;16.60;10.55;;;11.90;99.90;;;;;;4892440;29;20130;-82
2022/10/17 03:25:11;;;;;;;17.58;11.43;;;11.90;99.90;;;;;;4893361;29;20096;-81
2022/10/17 03:27:37;;;;;;;21.25;11.30;;;11.80;99.90;;;;;;4892827;29;20604;-82
2022/10/17 03:30:03;;;;;;;17.00;10.98;;;11.90;99.90;;;;;;4893318;29;20401;-81
2022/10/17 03:32:29;;;;;;;17.15;11.48;;;11.90;99.90;;;;;;4893263;29;20040;-81
2022/10/17 03:34:54;;;;;;;16.33;11.82;;;11.90;99.90;;;;;;4891050;29;20052;-82
2022/10/17 03:37:20;;;;;;;19.58;11.40;;;12.00;99.90;;;;;;4893231;29;20040;-81
2022/10/17 03:39:45;;;;;;;20.35;11.38;;;11.90;99.90;;;;;;4876096;29;150481;-81
2022/10/17 03:42:11;;;;;;;21.20;11.68;;;11.90;99.90;;;;;;4886016;29;20050;-81
2022/10/17 03:44:37;;;;;;;22.08;12.10;;;11.90;99.90;;;;;;4890933;29;20051;-81
2022/10/17 03:47:02;;;;;;;18.17;10.85;;;11.90;99.90;;;;;;4894154;29;20076;-81
2022/10/17 03:49:28;;;;;;;16.67;11.05;;;12.00;99.90;;;;;;4896739;29;20044;-81
2022/10/17 03:51:54;;;;;;;14.95;10.38;;;12.10;99.90;;;;;;4895894;29;20513;-81
2022/10/17 03:54:19;;;;;;;20.13;10.55;;;11.90;99.90;;;;;;4896893;29;20116;-81
2022/10/17 03:56:45;;;;;;;16.13;9.65;;;12.10;99.90;;;;;;4895968;29;20056;-82
2022/10/17 03:59:13;;;;;;;20.75;9.68;;;12.00;99.90;;;;;;4896941;29;20048;-81
2022/10/17 04:01:39;;;;;;;18.15;9.68;;;11.90;99.90;;;;;;4896781;29;20048;-81
2022/10/17 04:04:05;;;;;;;17.38;8.55;;;12.00;99.90;;;;;;4896561;29;20516;-82
2022/10/17 04:06:31;;;;;;;14.00;8.40;;;12.10;99.90;;;;;;4896730;29;20112;-81
2022/10/17 04:08:57;;;;;;;12.32;8.90;;;12.00;99.90;;;;;;4897238;29;20051;-81
2022/10/17 04:11:22;;;;;;;16.45;8.77;;;12.20;99.90;;;;;;4895763;29;20044;-81
2022/10/17 04:13:53;;;;;;;17.30;8.73;;;12.10;99.90;;;;;;4896931;29;20131;-81
2022/10/17 04:16:19;;;;;;;12.90;8.68;;;12.20;99.90;;;;;;4896649;29;20045;-81
2022/10/17 04:18:44;;;;;;;14.40;8.30;;;12.20;99.90;;;;;;4896407;29;20398;-81
2022/10/17 04:21:11;;;;;;;15.77;8.32;;;12.10;99.90;;;;;;4893131;29;20060;-82
2022/10/17 04:23:37;;;;;;;14.68;9.27;;;12.10;99.90;;;;;;4897062;29;20041;-81
2022/10/17 04:26:04;;;;;;;12.95;9.27;;;12.00;99.90;;;;;;4878814;29;20040;-82
2022/10/17 04:28:31;;;;;;;18.77;9.13;;;12.10;99.90;;;;;;4880652;29;20040;-82
2022/10/17 04:30:58;;;;;;;14.95;9.30;;;12.10;99.90;;;;;;4896071;29;20052;-81
2022/10/17 04:33:24;;;;;;;14.48;9.70;;;12.20;99.90;;;;;;4896317;29;20413;-81
2022/10/17 04:35:57;;;;;;;21.05;10.50;;;12.20;99.90;;;;;;4895432;29;20052;-82
2022/10/17 04:38:23;;;;;;;20.23;10.18;;;12.30;99.90;;;;;;4896134;29;20482;-82
2022/10/17 04:40:49;;;;;;;13.77;9.80;;;12.20;99.90;;;;;;4883602;29;20051;-82
2022/10/17 04:43:14;;;;;;;15.60;10.63;;;12.30;99.90;;;;;;4883821;29;20107;-81
2022/10/17 04:45:40;;;;;;;17.00;10.38;;;12.50;99.90;;;;;;4898544;29;20082;-82
2022/10/17 04:48:06;;;;;;;15.18;10.48;;;12.40;99.90;;;;;;4884067;29;20080;-82
2022/10/17 04:50:31;;;;;;;15.23;11.00;;;12.30;99.90;;;;;;4898575;29;20055;-82
2022/10/17 04:52:58;;;;;;;13.38;10.80;;;12.30;99.90;;;;;;4898726;29;20094;-81
2022/10/17 04:55:23;;;;;;;15.75;11.30;;;12.50;99.90;;;;;;4899196;29;20091;-81
2022/10/17 04:57:49;;;;;;;16.40;11.38;;;12.30;99.90;;;;;;4897238;29;20091;-81
2022/10/17 05:00:15;;;;;;;20.83;12.15;;;12.50;99.90;;;;;;4895709;29;20384;-82
2022/10/17 05:02:40;;;;;;;15.73;11.32;;;12.50;99.90;;;;;;4880565;29;20066;-81
2022/10/17 05:05:06;;;;;;;20.92;12.20;;;12.50;99.90;;;;;;4880307;29;20052;-81
2022/10/17 05:07:32;;;;;;;20.55;12.35;;;12.40;99.90;;;;;;4896382;29;20412;-81
2022/10/17 05:09:58;;;;;;;16.67;11.23;;;12.60;99.90;;;;;;4895918;29;20040;-81
2022/10/17 05:12:24;;;;;;;20.38;12.88;;;12.50;99.90;;;;;;4896880;29;20044;-82
2022/10/17 05:14:50;;;;;;;17.30;13.07;;;12.50;99.90;;;;;;4895153;29;20104;-82
2022/10/17 05:17:16;;;;;;;18.20;12.93;;;12.60;99.90;;;;;;4896768;29;20048;-81
2022/10/17 05:19:41;;;;;;;19.17;13.35;;;12.80;99.90;;;;;;4896394;29;20126;-81
2022/10/17 05:22:07;;;;;;;21.40;13.00;;;12.60;99.90;;;;;;4891603;29;20041;-82
2022/10/17 05:24:33;;;;;;;17.20;12.25;;;12.80;99.90;;;;;;4882416;29;20498;-83
2022/10/17 05:26:59;;;;;;;21.23;13.57;;;12.60;99.90;;;;;;4886896;29;20044;-83
2022/10/17 05:29:25;;;;;;;19.77;13.63;;;12.70;99.90;;;;;;4885035;29;20099;-82
2022/10/17 05:31:50;;;;;;;22.42;13.48;;;12.80;99.90;;;;;;4886412;29;20060;-83
2022/10/17 05:34:16;;;;;;;18.67;13.45;;;12.70;99.90;;;;;;4868826;29;20053;-82
2022/10/17 05:36:42;;;;;;;20.92;13.40;;;12.70;99.90;;;;;;4884821;29;20059;-82
2022/10/17 05:39:07;;;;;;;19.88;13.82;;;12.90;99.90;;;;;;4885862;29;20501;-82
2022/10/17 05:41:33;;;;;;;21.02;14.15;;;12.80;99.90;;;;;;4883616;29;20056;-83
2022/10/17 05:43:59;;;;;;;22.20;14.00;;;12.90;99.90;;;;;;4885817;29;20047;-83
2022/10/17 05:46:25;;;;;;;22.80;14.73;;;12.70;99.90;;;;;;4885596;29;20402;-83
2022/10/17 05:48:51;;;;;;;22.75;14.90;;;12.70;99.90;;;;;;4883538;29;20044;-82
2022/10/17 05:51:17;;;;;;;22.40;14.55;;;12.90;99.90;;;;;;4883725;29;20104;-83
2022/10/17 05:53:43;;;;;;;23.55;14.40;;;12.80;99.90;;;;;;4885338;29;20032;-84
2022/10/17 05:56:11;;;;;;;17.70;13.95;;;12.90;99.90;;;;;;4869922;29;20083;-80
2022/10/17 05:58:42;;;;;;;25.35;15.38;;;12.80;99.90;;;;;;4871894;29;20087;-80
2022/10/17 06:01:09;;;;;;;20.80;14.13;;;12.90;99.90;;;;;;4883827;29;20059;-81
2022/10/17 06:03:35;;;;;;;24.00;14.93;;;12.90;99.90;;;;;;4886332;29;20041;-80
2022/10/17 06:06:05;;;;;;;23.00;15.27;;;13.00;99.90;;;;;;4868811;29;20141;-82
2022/10/17 06:08:30;;;;;;;25.15;15.13;;;12.90;99.90;;;;;;4886205;29;20341;-81
2022/10/17 06:10:56;;;;;;;19.48;14.45;;;13.00;99.90;;;;;;4884504;29;20048;-81
2022/10/17 06:13:22;;;;;;;21.85;14.45;;;12.90;99.90;;;;;;4884976;29;20045;-82
2022/10/17 06:15:47;;;;;;;24.45;15.40;;;12.90;99.90;;;;;;4886124;29;20127;-81
2022/10/17 06:18:13;;;;;;;24.15;15.43;;;13.00;99.90;;;;;;4867627;29;20048;-81
2022/10/17 06:20:39;;;;;;;23.92;15.30;;;12.90;99.90;;;;;;4884435;29;20039;-81
2022/10/17 06:23:05;;;;;;;28.10;15.95;;;12.90;99.90;;;;;;4885309;29;20469;-81
2022/10/17 06:25:31;;;;;;;21.88;15.90;;;12.90;99.90;;;;;;4867255;29;20048;-83
2022/10/17 06:27:58;;;;;;;30.52;15.88;;;12.90;99.90;;;;;;4886403;29;20040;-82
2022/10/17 06:30:24;;;;;;;20.60;15.60;;;12.90;99.90;;;;;;4884343;29;20055;-82
2022/10/17 06:32:51;;;;;;;25.17;14.93;;;13.00;99.90;;;;;;4887695;29;20099;-81
2022/10/17 06:35:17;;;;;;;20.40;15.05;;;12.90;99.90;;;;;;4892376;29;20456;-81
2022/10/17 06:37:43;;;;;;;28.52;16.10;;;13.10;99.90;;;;;;4892563;29;20048;-81
2022/10/17 06:40:11;;;;;;;22.60;15.82;;;13.10;99.90;;;;;;4874857;29;20064;-81
2022/10/17 06:42:37;;;;;;;22.75;14.98;;;13.00;99.90;;;;;;4891208;29;20064;-81
2022/10/17 06:45:04;;;;;;;31.30;15.88;;;13.20;99.90;;;;;;4890397;29;20057;-81
2022/10/17 06:47:30;;;;;;;21.85;15.82;;;13.20;99.90;;;;;;4890422;29;20084;-81
2022/10/17 06:49:56;;;;;;;27.10;15.98;;;13.10;99.90;;;;;;4874325;29;20091;-81
2022/10/17 06:52:22;;;;;;;24.25;15.77;;;13.10;99.90;;;;;;4890309;29;20048;-81
2022/10/17 06:54:47;;;;;;;29.67;16.20;;;13.30;99.90;;;;;;4874614;29;20485;-80
2022/10/17 06:57:13;;;;;;;27.70;16.48;;;13.30;99.90;;;;;;4875394;29;20049;-80
2022/10/17 06:59:39;;;;;;;22.55;16.58;;;13.20;99.90;;;;;;4890130;29;20060;-80
2022/10/17 07:02:05;;;;;;;24.90;16.27;;;13.20;99.90;;;;;;4890570;29;20106;-81
2022/10/17 07:04:31;;;;;;;29.80;17.30;;;13.20;99.90;;;;;;4890999;29;20088;-81
2022/10/17 07:06:56;;;;;;;26.10;16.58;;;13.30;99.90;;;;;;4888484;29;20060;-81
2022/10/17 07:09:23;;;;;;;20.83;15.43;;;13.40;99.90;;;;;;4890811;29;20120;-81
2022/10/17 07:11:49;;;;;;;21.02;15.73;;;13.30;99.90;;;;;;4890215;29;20490;-80
2022/10/17 07:14:14;;;;;;;25.58;16.35;;;13.30;99.90;;;;;;4890168;29;20064;-81
2022/10/17 07:16:40;;;;;;;27.25;16.70;;;13.40;99.90;;;;;;4890514;29;20450;-81
2022/10/17 07:19:06;;;;;;;22.90;16.73;;;13.60;99.90;;;;;;4889970;29;20409;-81
2022/10/17 07:21:31;;;;;;;29.23;16.40;;;13.50;99.90;;;;;;4888519;29;20053;-81
2022/10/17 07:23:57;;;;;;;22.75;17.02;;;13.60;99.90;;;;;;4890293;29;20048;-81
2022/10/17 07:26:23;;;;;;;23.52;15.35;;;13.60;99.90;;;;;;4890136;29;20063;-82
2022/10/17 07:28:52;;;;;;;25.25;15.73;;;13.60;99.90;;;;;;4889541;29;20048;-81
2022/10/17 07:31:19;;;;;;;21.98;15.05;;;13.70;99.90;;;;;;4889733;29;20063;-81
2022/10/17 07:33:45;;;;;;;25.02;15.30;;;14.00;99.90;;;;;;4889756;29;20465;-80
2022/10/17 07:36:11;;;;;;;23.33;15.82;;;13.90;99.90;;;;;;4888859;29;20059;-81
2022/10/17 07:38:38;;;;;;;23.42;15.18;;;14.20;99.90;;;;;;4892872;29;20094;-82
2022/10/17 07:41:06;;;;;;;31.80;15.27;;;14.30;99.90;;;;;;4892820;29;20048;-81
2022/10/17 07:43:32;;;;;;;27.05;15.15;;;14.40;99.90;;;;;;4893623;29;20048;-81
2022/10/17 07:46:00;;;;;;;23.25;14.23;;;14.40;99.90;;;;;;4892776;29;20051;-82
2022/10/17 07:48:28;;;;;;;20.25;13.25;;;14.50;99.90;;;;;;4892644;29;20196;-82
2022/10/17 07:50:55;;;;;;;22.58;13.77;;;14.50;99.90;;;;;;4892630;29;20055;-81
2022/10/17 07:53:21;;;;;;;22.70;12.90;;;14.70;99.90;;;;;;4893036;29;20051;-81
2022/10/17 07:55:48;;;;;;;21.55;12.95;;;14.80;99.90;;;;;;4892566;29;20055;-82
2022/10/17 07:58:14;;;;;;;20.48;12.25;;;14.90;99.90;;;;;;4893358;29;20134;-82
2022/10/17 08:00:40;;;;;;;20.73;11.52;;;14.80;99.90;;;;;;4893403;29;20044;-82
2022/10/17 08:03:06;;;;;;;18.10;11.57;;;14.90;99.90;;;;;;4892937;29;20052;-82
2022/10/17 08:05:33;;;;;;;22.35;12.82;;;14.90;99.90;;;;;;4892778;29;20126;-82
2022/10/17 08:07:58;;;;;;;17.73;11.85;;;15.20;99.90;;;;;;4893807;29;20079;-82
2022/10/17 08:10:28;;;;;;;20.10;11.57;;;15.40;99.90;;;;;;4892604;29;20056;-82
2022/10/17 08:12:55;;;;;;;16.92;10.90;;;15.40;99.90;;;;;;4893484;29;20055;-83
2022/10/17 08:15:22;;;;;;;32.45;10.85;;;15.50;99.90;;;;;;4893198;29;20060;-81
2022/10/17 08:17:48;;;;;;;17.25;9.63;;;15.90;99.90;;;;;;4892789;29;20072;-81
2022/10/17 08:20:14;;;;;;;17.63;9.40;;;16.00;99.90;;;;;;4892697;29;20044;-82
2022/10/17 08:22:39;;;;;;;19.17;9.13;;;16.10;99.90;;;;;;4893375;29;20453;-82
2022/10/17 08:25:06;;;;;;;16.98;9.32;;;16.20;99.90;;;;;;4892802;29;20044;-82
2022/10/17 08:27:32;;;;;;;12.77;8.35;;;16.20;99.90;;;;;;4893510;29;20054;-81
2022/10/17 08:29:58;;;;;;;15.90;8.50;;;16.20;99.90;;;;;;4893029;29;20055;-81
2022/10/17 08:32:26;;;;;;;12.18;8.07;;;16.40;99.90;;;;;;4893692;29;20055;-83
2022/10/17 08:34:52;;;;;;;16.58;8.30;;;16.30;99.90;;;;;;4896030;29;20520;-83
2022/10/17 08:37:19;;;;;;;12.38;8.48;;;16.40;99.90;;;;;;4885924;29;20495;-84
2022/10/17 08:39:45;;;;;;;14.88;9.15;;;16.30;99.90;;;;;;4880897;29;20060;-83
2022/10/17 08:42:23;;;;;;;14.10;7.70;;;16.40;99.90;;;;;;4881343;29;20090;-84
2022/10/17 08:44:53;;;;;;;12.13;8.05;;;16.50;99.90;;;;;;4878890;29;20055;-83
2022/10/17 08:47:27;;;;;;;11.57;8.10;;;16.60;99.90;;;;;;4879237;29;20051;-84
2022/10/17 08:49:57;;;;;;;16.65;8.77;;;16.70;99.90;;;;;;4878573;29;20047;-83
2022/10/17 08:52:40;;;;;;;14.70;8.95;;;16.70;99.90;;;;;;4877147;29;20048;-84
2022/10/17 08:55:28;;;;;;;16.15;8.50;;;16.70;99.90;;;;;;4876552;29;20044;-83
2022/10/17 08:57:54;;;;;;;16.20;7.70;;;16.80;99.90;;;;;;4875581;29;20048;-82
2022/10/17 09:00:21;;;;;;;22.00;8.10;;;16.80;99.90;;;;;;4859632;29;20079;-82
2022/10/17 09:03:25;;;;;;;12.30;7.68;;;16.80;99.90;;;;;;4860454;29;20513;-84
2022/10/17 09:05:58;;;;;;;16.92;7.60;;;16.90;99.90;;;;;;4857941;29;20135;-83
2022/10/17 09:08:40;;;;;;;21.73;8.02;;;17.00;99.90;;;;;;4876086;29;20490;-83
2022/10/17 09:11:18;;;;;;;13.45;7.18;;;17.00;99.90;;;;;;4860265;29;20049;-82
2022/10/17 09:13:59;;;;;;;14.82;7.05;;;17.00;99.90;;;;;;4875097;29;20084;-83
2022/10/17 09:16:48;;;;;;;14.48;8.20;;;16.90;99.90;;;;;;4875766;29;20080;-82
2022/10/17 09:19:30;;;;;;;15.98;7.25;;;16.90;99.90;;;;;;4875612;29;20150;-84
2022/10/17 09:22:02;;;;;;;16.08;7.60;;;17.00;99.90;;;;;;4858398;29;20079;-82
2022/10/17 09:24:39;;;;;;;14.73;7.22;;;17.00;99.90;;;;;;4874113;29;20501;-83
2022/10/17 09:27:16;;;;;;;13.15;7.63;;;17.00;99.90;;;;;;4877159;29;20087;-82
2022/10/17 09:29:45;;;;;;;14.27;7.85;;;16.90;99.90;;;;;;4893347;29;20095;-82
2022/10/17 09:32:17;;;;;;;14.88;8.02;;;17.10;99.90;;;;;;4894419;29;20059;-82
2022/10/17 09:34:43;;;;;;;14.77;7.70;;;17.00;99.90;;;;;;4893188;29;20147;-82
2022/10/17 09:37:14;;;;;;;16.83;7.25;;;17.00;99.90;;;;;;4878199;29;20115;-82
2022/10/17 09:39:41;;;;;;;16.63;6.93;;;17.00;99.90;;;;;;4893652;29;20520;-82
2022/10/17 09:42:12;;;;;;;12.70;7.38;;;17.00;99.90;;;;;;4893414;29;20052;-82
2022/10/17 09:45:10;;;;;;;11.98;6.80;;;17.20;99.90;;;;;;4878015;29;20512;-83
2022/10/17 09:47:42;;;;;;;12.93;6.68;;;17.10;99.90;;;;;;4877803;29;20098;-84
2022/10/17 09:50:20;;;;;;;13.65;6.85;;;17.10;99.90;;;;;;4878025;29;20059;-83
2022/10/17 09:52:49;;;;;;;14.98;8.07;;;17.10;99.90;;;;;;4893678;29;20136;-83
2022/10/17 09:55:25;;;;;;;10.35;6.68;;;17.30;99.90;;;;;;4893037;29;20060;-82
2022/10/17 09:57:55;;;;;;;14.07;7.00;;;17.20;99.90;;;;;;4893337;29;20048;-83
2022/10/17 10:00:24;;;;;;;9.98;7.13;;;17.20;99.90;;;;;;4893347;29;20066;-82
2022/10/17 10:03:06;;;;;;;14.18;7.68;;;17.20;99.90;;;;;;4892964;29;20159;-82
2022/10/17 10:05:32;;;;;;;11.82;7.30;;;17.30;99.90;;;;;;4893124;29;20043;-83
2022/10/17 10:08:04;;;;;;;12.38;7.45;;;17.10;99.90;;;;;;4893224;29;20048;-84
2022/10/17 10:10:31;;;;;;;14.65;7.65;;;17.10;99.90;;;;;;4893016;29;20048;-84
2022/10/17 10:13:02;;;;;;;27.50;8.38;;;17.10;99.90;;;;;;4893439;29;20048;-84
2022/10/17 11:01:47;;;;;;;20.58;12.43;;;16.50;99.90;;;;;;4895062;29;20151;-87
2022/10/17 11:14:45;;;;;;;22.20;12.88;;;16.50;99.90;;;;;;4905133;23;20057;-86
2022/10/17 11:17:37;;;;;;;26.65;14.13;;;16.40;99.90;;;;;;4871258;29;20099;-85
2022/10/17 11:20:31;;;;;;;25.02;13.80;;;16.60;99.90;;;;;;4856730;29;20056;-86
2022/10/17 11:23:20;;;;;;;23.77;13.75;;;16.60;99.90;;;;;;4855504;29;20440;-85
2022/10/17 11:25:49;;;;;;;23.88;14.32;;;16.50;99.90;;;;;;4868266;29;20053;-86
2022/10/17 11:28:17;;;;;;;26.98;13.43;;;16.50;99.90;;;;;;4850202;29;20037;-85
2022/10/17 11:30:52;;;;;;;23.95;13.55;;;16.70;99.90;;;;;;4862465;29;20045;-86
2022/10/17 11:33:58;;;;;;;23.17;14.45;;;16.70;99.90;;;;;;4867857;29;20085;-87
2022/10/17 11:45:39;;;;;;;27.92;12.75;;;16.70;99.90;;;;;;4896618;29;20056;-87
2022/10/17 11:51:12;;;;;;;25.23;12.90;;;16.50;99.90;;;;;;4927576;23;20503;-87
2022/10/17 12:14:54;;;;;;;26.60;11.75;;;16.40;99.90;;;;;;4915079;29;20067;-86
2022/10/17 12:18:36;;;;;;;18.95;11.23;;;16.60;99.90;;;;;;4881151;29;20060;-87
2022/10/17 12:20:57;;;;;;;16.90;9.95;;;16.50;99.90;;;;;;4891843;29;20056;-86
2022/10/17 12:23:39;;;;;;;;;;;;;;;;;;;;;
2022/10/17 12:26:25;;;;;;;22.65;11.68;;;16.70;99.90;;;;;;4900353;29;20059;-86
2022/10/17 12:29:00;;;;;;;18.08;11.60;;;16.70;99.90;;;;;;4883965;29;20048;-85
2022/10/17 12:31:26;;;;;;;16.95;10.15;;;16.70;99.90;;;;;;4899931;29;20044;-86
2022/10/17 12:33:57;;;;;;;15.70;10.05;;;16.70;99.90;;;;;;4900592;29;20496;-86
2022/10/17 12:36:29;;;;;;;12.20;9.35;;;16.80;99.90;;;;;;4899058;29;20051;-86
2022/10/17 12:39:13;;;;;;;16.80;10.45;;;17.00;99.90;;;;;;4883503;29;20107;-86
2022/10/17 12:41:43;;;;;;;15.85;9.60;;;16.90;99.90;;;;;;4882997;29;20086;-86
2022/10/17 12:44:31;;;;;;;13.05;8.40;;;16.90;99.90;;;;;;4883086;29;20416;-86
2022/10/17 12:47:24;;;;;;;19.80;7.78;;;17.10;99.90;;;;;;4898596;29;20400;-86
2022/10/17 12:49:51;;;;;;;23.13;8.02;;;16.90;99.90;;;;;;4882693;29;20099;-85
2022/10/17 12:52:33;;;;;;;12.40;6.70;;;17.00;99.90;;;;;;4898744;29;20048;-86
2022/10/17 12:55:11;;;;;;;17.45;6.60;;;17.00;99.90;;;;;;4882866;29;20055;-86
2022/10/17 12:57:55;;;;;;;11.25;6.00;;;16.90;99.90;;;;;;4898690;29;20048;-86
2022/10/17 13:00:29;;;;;;;9.10;5.80;;;17.00;99.90;;;;;;4898986;29;20048;-87
2022/10/17 13:03:04;;;;;;;9.80;5.38;;;16.60;99.90;;;;;;4898924;29;20048;-86
2022/10/17 13:05:38;;;;;;;13.63;5.10;;;16.90;99.90;;;;;;4882370;29;20067;-86
2022/10/17 13:08:11;;;;;;;9.60;5.00;;;16.70;99.90;;;;;;4882942;29;20059;-85
2022/10/17 13:10:38;;;;;;;8.15;4.47;;;16.80;99.90;;;;;;4898349;29;20098;-85
2022/10/17 13:13:14;;;;;;;9.75;4.72;;;16.60;99.90;;;;;;4898614;29;20071;-85
2022/10/17 13:15:45;;;;;;;9.60;4.95;;;16.60;99.90;;;;;;4897523;29;20139;-86
2022/10/17 13:21:27;;;;;;;9.88;4.53;;;16.70;99.90;;;;;;4878850;29;20056;-86
2022/10/17 13:24:29;;;;;;;12.70;4.75;;;16.50;99.90;;;;;;4898199;29;20116;-86
2022/10/17 13:26:56;;;;;;;8.52;4.53;;;16.70;99.90;;;;;;4897523;29;20095;-86
2022/10/17 13:37:09;;;;;;;10.52;5.05;;;16.50;99.90;;;;;;4818438;29;20045;-86
2022/10/17 13:40:18;;;;;;;7.47;4.57;;;16.40;99.90;;;;;;4825426;29;20198;-87
2022/10/17 13:43:01;;;;;;;11.82;5.00;;;16.40;99.90;;;;;;4874056;29;20116;-86
2022/10/17 13:45:33;;;;;;;9.38;4.93;;;16.40;99.90;;;;;;4898714;29;20048;-86
2022/10/17 13:51:33;;;;;;;12.52;6.28;;;16.30;99.90;;;;;;4863599;29;20062;-87
2022/10/17 13:54:47;;;;;;;10.90;4.80;;;16.30;99.90;;;;;;4880918;29;20052;-86
2022/10/17 13:57:22;;;;;;;19.65;5.43;;;16.10;99.90;;;;;;4883156;29;20051;-86
2022/10/17 14:00:09;;;;;;;9.40;4.43;;;16.10;99.90;;;;;;4881978;29;20087;-86
2022/10/17 14:02:47;;;;;;;12.82;4.47;;;16.20;99.90;;;;;;4897750;29;20048;-86
2022/10/17 14:05:28;;;;;;;15.10;4.07;;;16.00;99.90;;;;;;4897798;29;20048;-85
2022/10/17 14:08:03;;;;;;;14.10;3.67;;;15.60;99.90;;;;;;4881995;29;20056;-86
2022/10/17 14:10:33;;;;;;;8.88;3.42;;;16.10;99.90;;;;;;4898298;29;20052;-86
2022/10/17 14:13:00;;;;;;;11.25;2.83;;;15.90;99.90;;;;;;4897197;29;20504;-86
2022/10/17 14:15:29;;;;;;;9.60;3.30;;;16.00;99.90;;;;;;4897626;29;20565;-86
2022/10/17 14:18:01;;;;;;;6.82;2.75;;;15.80;99.90;;;;;;4897602;29;20408;-85
2022/10/17 14:20:28;;;;;;;9.85;2.85;;;15.80;99.90;;;;;;4881119;29;20048;-86
2022/10/17 14:22:58;;;;;;;9.18;2.60;;;15.80;99.90;;;;;;4897089;29;20107;-86
2022/10/17 14:25:30;;;;;;;9.60;2.88;;;15.80;99.90;;;;;;4897236;29;20048;-86
2022/10/17 14:32:01;;;;;;;5.88;2.92;;;15.80;99.90;;;;;;4808728;29;20140;-87
2022/10/17 14:42:43;;;;;;;14.23;3.95;;;15.60;99.90;;;;;;4744278;30;20059;-87
2022/10/17 14:48:22;;;;;;;9.85;3.28;;;15.50;99.90;;;;;;4915259;23;20040;-88
2022/10/17 15:02:42;;;;;;;11.80;4.70;;;15.40;99.90;;;;;;4905799;29;20058;-86
2022/10/17 15:05:58;;;;;;;13.30;5.18;;;15.60;99.90;;;;;;4880149;29;20059;-86